Time;durP1;ratioP1;P1;durP2;ratioP2;P2;SDS_P1;SDS_P2;PMS_P1;PMS_P2;Temp;Humidity;BMP_temperature;BMP_pressure;BME280_temperature;BME280_humidity;BME280_pressure;Samples;Min_cycle;Max_cycle;Signal;HPM_P1;HPM_P2
2021/04/25 00:01:08;;;;;;;10.80;5.17;;;9.40;80.00;;;;;;5072201;28;20231;-66
2021/04/25 00:03:35;;;;;;;8.33;4.47;;;9.40;80.50;;;;;;5072659;28;20640;-66
2021/04/25 00:06:01;;;;;;;9.73;4.73;;;9.40;80.50;;;;;;5074599;28;20286;-65
2021/04/25 00:08:28;;;;;;;9.10;5.50;;;9.40;80.90;;;;;;5091770;28;20204;-64
2021/04/25 00:10:54;;;;;;;6.77;5.00;;;9.30;81.10;;;;;;5085588;28;20308;-64
2021/04/25 00:13:21;;;;;;;8.97;5.00;;;9.30;81.10;;;;;;5071351;28;20703;-62
2021/04/25 00:15:48;;;;;;;8.90;5.13;;;9.20;81.00;;;;;;5072304;28;20216;-61
2021/04/25 00:18:14;;;;;;;7.57;5.27;;;9.20;81.20;;;;;;5072251;28;20216;-62
2021/04/25 00:20:40;;;;;;;7.60;5.03;;;9.10;81.80;;;;;;5072120;28;20254;-61
2021/04/25 00:23:06;;;;;;;10.67;5.30;;;9.00;81.90;;;;;;5072129;28;20714;-62
2021/04/25 00:25:32;;;;;;;9.80;4.80;;;9.00;82.20;;;;;;5071835;28;20209;-62
2021/04/25 00:27:59;;;;;;;7.78;5.10;;;8.90;82.50;;;;;;5069688;28;20439;-65
2021/04/25 00:30:26;;;;;;;9.20;5.27;;;8.90;82.80;;;;;;5070669;28;20217;-65
2021/04/25 00:32:52;;;;;;;10.50;4.83;;;8.80;83.50;;;;;;5071024;28;20220;-63
2021/04/25 00:35:19;;;;;;;6.43;4.57;;;8.80;83.60;;;;;;5071902;28;20229;-64
2021/04/25 00:37:47;;;;;;;8.57;4.53;;;8.80;83.70;;;;;;5072287;28;20201;-65
2021/04/25 00:40:15;;;;;;;6.17;4.33;;;8.80;83.80;;;;;;5071842;28;20227;-65
2021/04/25 00:42:41;;;;;;;8.97;5.07;;;8.90;84.20;;;;;;5071603;28;20209;-65
2021/04/25 00:45:12;;;;;;;7.57;4.67;;;8.90;84.30;;;;;;5071476;28;20229;-64
2021/04/25 00:47:40;;;;;;;9.47;4.60;;;8.90;84.30;;;;;;5071414;28;20660;-64
2021/04/25 00:50:07;;;;;;;6.70;4.97;;;8.90;84.50;;;;;;5071269;28;20700;-64
2021/04/25 00:52:36;;;;;;;8.97;4.77;;;8.90;84.50;;;;;;5071608;28;20211;-63
2021/04/25 00:55:03;;;;;;;7.97;4.27;;;8.90;84.50;;;;;;5071098;28;20232;-64
2021/04/25 00:57:30;;;;;;;6.90;4.70;;;8.90;84.50;;;;;;5071448;28;20278;-64
2021/04/25 00:59:56;;;;;;;9.33;5.47;;;8.80;84.50;;;;;;5071249;28;20211;-64
2021/04/25 01:02:23;;;;;;;9.13;4.27;;;8.80;85.00;;;;;;5070495;28;20680;-63
2021/04/25 01:04:51;;;;;;;9.17;5.53;;;8.70;85.20;;;;;;5071238;28;20286;-64
2021/04/25 01:07:17;;;;;;;8.53;4.60;;;8.60;85.50;;;;;;5071283;28;20564;-65
2021/04/25 01:09:44;;;;;;;7.00;4.87;;;8.50;85.70;;;;;;5071211;28;20255;-65
2021/04/25 01:12:10;;;;;;;5.40;4.27;;;8.50;86.20;;;;;;5071260;28;20220;-64
2021/04/25 01:14:36;;;;;;;6.00;4.37;;;8.40;86.80;;;;;;5070951;28;20724;-65
2021/04/25 01:17:03;;;;;;;8.97;5.87;;;8.30;87.40;;;;;;5071450;28;20698;-64
2021/04/25 01:19:29;;;;;;;11.43;4.70;;;8.20;87.70;;;;;;5071666;28;20212;-64
2021/04/25 01:21:56;;;;;;;6.57;4.23;;;8.20;88.00;;;;;;5071390;28;20209;-64
2021/04/25 01:24:23;;;;;;;8.73;4.37;;;8.10;88.20;;;;;;5070898;28;20282;-64
2021/04/25 01:26:49;;;;;;;8.30;4.43;;;8.10;88.60;;;;;;5071279;28;20205;-64
2021/04/25 01:29:15;;;;;;;7.30;4.60;;;8.10;89.10;;;;;;5070668;28;20672;-64
2021/04/25 01:31:42;;;;;;;7.93;4.23;;;8.00;89.90;;;;;;5071021;28;20575;-64
2021/04/25 01:34:08;;;;;;;9.27;4.70;;;7.90;90.00;;;;;;5070765;28;20229;-64
2021/04/25 01:36:34;;;;;;;5.87;4.20;;;7.90;90.00;;;;;;5070821;28;20213;-62
2021/04/25 01:39:01;;;;;;;5.87;4.37;;;7.90;90.30;;;;;;5070783;28;20212;-63
2021/04/25 01:41:27;;;;;;;7.13;4.43;;;7.80;90.40;;;;;;5070671;28;20204;-63
2021/04/25 01:43:54;;;;;;;10.57;4.80;;;7.80;90.60;;;;;;5070901;28;20225;-63
2021/04/25 01:46:20;;;;;;;6.20;4.40;;;7.80;90.80;;;;;;5070888;28;20295;-63
2021/04/25 01:48:46;;;;;;;7.00;4.10;;;7.80;91.10;;;;;;5070694;28;20607;-63
2021/04/25 01:51:12;;;;;;;6.27;4.60;;;7.70;91.10;;;;;;5070729;28;20232;-63
2021/04/25 01:53:39;;;;;;;7.63;5.40;;;7.70;91.20;;;;;;5070909;28;20585;-63
2021/04/25 01:56:06;;;;;;;10.93;4.97;;;7.70;91.20;;;;;;5070665;28;20209;-62
2021/04/25 01:58:32;;;;;;;8.77;4.90;;;7.80;91.40;;;;;;5070678;28;20209;-63
2021/04/25 02:00:59;;;;;;;8.17;5.30;;;7.80;91.50;;;;;;5070714;28;20232;-62
2021/04/25 02:03:26;;;;;;;7.27;5.03;;;7.80;91.50;;;;;;5070474;28;20228;-62
2021/04/25 02:05:53;;;;;;;7.20;4.60;;;7.80;91.60;;;;;;5070555;28;20208;-62
2021/04/25 02:08:19;;;;;;;8.33;4.93;;;7.80;91.60;;;;;;5070264;28;20679;-62
2021/04/25 02:10:46;;;;;;;6.90;5.00;;;7.80;91.70;;;;;;5070573;28;20220;-62
2021/04/25 02:13:14;;;;;;;9.47;5.00;;;7.80;91.90;;;;;;5071047;28;20201;-62
2021/04/25 02:15:40;;;;;;;8.17;5.03;;;7.80;92.10;;;;;;5074577;28;20218;-62
2021/04/25 02:18:07;;;;;;;8.97;5.00;;;7.70;92.60;;;;;;5074710;28;20316;-62
2021/04/25 02:20:34;;;;;;;7.43;4.73;;;7.70;92.80;;;;;;5074716;28;20205;-62
2021/04/25 02:23:00;;;;;;;8.10;5.40;;;7.70;92.90;;;;;;5074891;28;20240;-63
2021/04/25 02:25:26;;;;;;;10.50;6.13;;;7.70;92.90;;;;;;5074274;28;20740;-63
2021/04/25 02:27:53;;;;;;;9.07;5.90;;;7.70;92.90;;;;;;5074476;28;20205;-63
2021/04/25 02:30:23;;;;;;;9.87;5.97;;;7.70;93.20;;;;;;5074272;28;20221;-62
2021/04/25 02:32:50;;;;;;;10.43;6.20;;;7.70;93.30;;;;;;5074287;28;20209;-62
2021/04/25 02:35:18;;;;;;;9.70;6.20;;;7.60;93.40;;;;;;5074234;28;20235;-63
2021/04/25 02:37:45;;;;;;;12.33;6.10;;;7.70;93.60;;;;;;5074691;28;20211;-62
2021/04/25 02:40:15;;;;;;;16.20;6.83;;;7.70;93.70;;;;;;5073947;28;20201;-63
2021/04/25 02:42:42;;;;;;;10.30;6.47;;;7.70;93.70;;;;;;5074065;28;20200;-63
2021/04/25 02:45:15;;;;;;;11.30;6.50;;;7.60;93.70;;;;;;5073774;28;20283;-63
2021/04/25 02:47:46;;;;;;;11.70;7.43;;;7.60;93.70;;;;;;5074368;28;20208;-63
2021/04/25 02:50:13;;;;;;;14.43;7.87;;;7.50;93.40;;;;;;5073992;28;20683;-63
2021/04/25 02:52:39;;;;;;;10.17;6.10;;;7.40;93.40;;;;;;5074400;28;20204;-63
2021/04/25 02:55:06;;;;;;;10.80;5.97;;;7.40;93.50;;;;;;5073847;28;20232;-62
2021/04/25 02:57:33;;;;;;;13.70;4.80;;;7.30;93.80;;;;;;5073759;28;20247;-62
2021/04/25 02:59:59;;;;;;;9.03;5.43;;;7.30;94.00;;;;;;5073622;28;20205;-62
2021/04/25 03:02:25;;;;;;;8.07;5.23;;;7.20;94.10;;;;;;5073621;28;20475;-62
2021/04/25 03:04:52;;;;;;;9.47;5.40;;;7.10;94.30;;;;;;5073628;28;20225;-63
2021/04/25 03:07:18;;;;;;;8.97;6.90;;;7.10;94.50;;;;;;5073836;28;20205;-62
2021/04/25 03:09:45;;;;;;;6.90;4.90;;;7.00;94.60;;;;;;5073578;28;20204;-62
2021/04/25 03:12:11;;;;;;;7.80;4.93;;;6.90;94.90;;;;;;5073479;28;20231;-62
2021/04/25 03:14:37;;;;;;;8.90;4.87;;;6.70;95.60;;;;;;5113980;22;20227;-61
2021/04/25 03:17:04;;;;;;;10.73;4.53;;;6.60;95.80;;;;;;5114471;28;20209;-60
2021/04/25 03:19:30;;;;;;;11.47;5.70;;;6.60;96.10;;;;;;5113822;28;20204;-61
2021/04/25 03:21:57;;;;;;;9.50;6.00;;;6.50;96.40;;;;;;5114133;28;20199;-61
2021/04/25 03:24:23;;;;;;;11.70;6.47;;;6.50;96.90;;;;;;5105131;28;20269;-61
2021/04/25 03:26:50;;;;;;;10.10;6.10;;;6.40;96.90;;;;;;5092921;28;20208;-61
2021/04/25 03:29:16;;;;;;;12.27;5.73;;;6.40;96.80;;;;;;5093030;28;20208;-61
2021/04/25 03:31:43;;;;;;;9.80;5.60;;;6.50;97.00;;;;;;5093278;28;20228;-61
2021/04/25 03:34:09;;;;;;;13.73;7.37;;;6.50;97.00;;;;;;5093015;28;20808;-61
2021/04/25 03:36:35;;;;;;;9.53;5.63;;;6.50;97.20;;;;;;5093330;28;20204;-61
2021/04/25 03:39:04;;;;;;;9.87;5.43;;;6.40;97.30;;;;;;5093286;28;20208;-61
2021/04/25 03:41:30;;;;;;;8.80;5.40;;;6.40;97.30;;;;;;5093136;28;20200;-61
2021/04/25 03:43:56;;;;;;;10.53;5.60;;;6.40;97.40;;;;;;5092788;28;20224;-60
2021/04/25 03:46:23;;;;;;;12.60;5.50;;;6.40;97.50;;;;;;5093155;28;20562;-61
2021/04/25 03:48:49;;;;;;;9.10;5.70;;;6.50;97.60;;;;;;5093034;28;20204;-61
2021/04/25 03:51:15;;;;;;;12.37;5.70;;;6.40;97.60;;;;;;5093647;28;20256;-61
2021/04/25 03:53:41;;;;;;;11.03;6.43;;;6.40;97.70;;;;;;5093262;28;20208;-61
2021/04/25 03:56:09;;;;;;;9.60;5.97;;;6.40;97.80;;;;;;5093458;28;20204;-61
2021/04/25 03:58:35;;;;;;;11.87;5.87;;;6.40;97.90;;;;;;5093621;28;20242;-61
2021/04/25 04:01:01;;;;;;;9.73;5.57;;;6.40;97.90;;;;;;5093581;28;20197;-62
2021/04/25 04:03:27;;;;;;;10.57;6.53;;;6.40;97.80;;;;;;5093673;28;20200;-61
2021/04/25 04:05:54;;;;;;;11.27;5.90;;;6.40;97.70;;;;;;5093147;28;20200;-61
2021/04/25 04:08:20;;;;;;;13.10;9.67;;;6.40;98.10;;;;;;5092830;28;20282;-60
2021/04/25 04:10:46;;;;;;;12.60;6.70;;;6.30;98.00;;;;;;5092900;28;20301;-60
2021/04/25 04:13:13;;;;;;;9.60;5.90;;;6.30;98.30;;;;;;5092832;28;20201;-61
2021/04/25 04:15:39;;;;;;;9.20;5.57;;;6.20;98.40;;;;;;5092316;28;20239;-62
2021/04/25 04:18:06;;;;;;;9.60;6.10;;;6.20;98.60;;;;;;5092593;28;20671;-60
2021/04/25 04:20:32;;;;;;;8.73;5.33;;;6.20;98.70;;;;;;5092599;28;20196;-61
2021/04/25 04:22:58;;;;;;;9.40;5.53;;;6.20;98.80;;;;;;5092830;28;20215;-60
2021/04/25 04:25:24;;;;;;;12.87;5.73;;;6.10;98.90;;;;;;5092303;28;20228;-60
2021/04/25 04:27:50;;;;;;;10.60;5.60;;;6.10;99.10;;;;;;5092081;28;20204;-60
2021/04/25 04:30:18;;;;;;;11.80;6.40;;;6.00;99.10;;;;;;5092017;28;20216;-61
2021/04/25 04:32:44;;;;;;;16.07;8.87;;;6.00;99.40;;;;;;5092057;28;20258;-61
2021/04/25 04:35:11;;;;;;;15.83;8.07;;;5.90;99.60;;;;;;5091986;28;20236;-61
2021/04/25 04:37:37;;;;;;;14.17;7.90;;;5.90;99.70;;;;;;5092097;28;20216;-60
2021/04/25 04:40:05;;;;;;;10.53;6.67;;;6.00;99.70;;;;;;5092131;28;20212;-60
2021/04/25 04:42:31;;;;;;;12.03;6.57;;;6.10;99.70;;;;;;5092311;28;20261;-60
2021/04/25 04:44:57;;;;;;;14.80;6.87;;;6.10;99.90;;;;;;5091690;28;20235;-60
2021/04/25 04:47:24;;;;;;;9.93;6.60;;;6.30;99.90;;;;;;5091788;28;20573;-60
2021/04/25 04:49:51;;;;;;;10.70;6.00;;;6.40;99.90;;;;;;5091930;28;20212;-60
2021/04/25 04:52:17;;;;;;;11.67;6.87;;;6.50;99.90;;;;;;5091875;28;20232;-60
2021/04/25 04:54:44;;;;;;;11.23;7.07;;;6.60;99.90;;;;;;5091461;28;20749;-61
2021/04/25 04:57:12;;;;;;;12.40;7.80;;;6.70;99.90;;;;;;5091932;28;20631;-61
2021/04/25 04:59:38;;;;;;;9.63;6.20;;;6.80;98.90;;;;;;5091646;28;20204;-61
2021/04/25 05:02:04;;;;;;;11.80;6.30;;;6.80;98.70;;;;;;5091656;28;20668;-61
2021/04/25 05:04:31;;;;;;;13.07;6.10;;;6.80;98.70;;;;;;5091486;28;20224;-60
2021/04/25 05:06:58;;;;;;;13.07;6.67;;;6.80;98.70;;;;;;5092094;28;20200;-61
2021/04/25 05:09:24;;;;;;;8.17;5.80;;;6.80;98.70;;;;;;5091458;28;20265;-60
2021/04/25 05:11:50;;;;;;;13.47;7.97;;;6.90;98.70;;;;;;5091600;28;20220;-61
2021/04/25 05:14:16;;;;;;;12.23;5.70;;;6.90;98.60;;;;;;5091150;28;20313;-61
2021/04/25 05:16:42;;;;;;;9.37;6.10;;;7.00;98.40;;;;;;5091560;28;20575;-61
2021/04/25 05:19:09;;;;;;;8.23;6.13;;;7.10;98.20;;;;;;5091443;28;20262;-60
2021/04/25 05:21:36;;;;;;;11.83;6.40;;;7.10;98.30;;;;;;5091478;28;20200;-61
2021/04/25 05:24:02;;;;;;;12.70;6.43;;;7.10;98.30;;;;;;5091613;28;20225;-59
2021/04/25 05:26:28;;;;;;;9.40;6.20;;;7.20;98.20;;;;;;5091603;28;20667;-59
2021/04/25 05:28:54;;;;;;;11.70;6.93;;;7.30;98.00;;;;;;5091397;28;20838;-62
2021/04/25 05:31:21;;;;;;;9.70;6.73;;;7.50;97.80;;;;;;5091970;28;20234;-61
2021/04/25 05:33:47;;;;;;;9.83;6.27;;;7.70;97.50;;;;;;5091262;28;20235;-61
2021/04/25 05:36:13;;;;;;;8.47;6.37;;;7.90;97.30;;;;;;5091380;28;20200;-60
2021/04/25 05:38:40;;;;;;;12.27;6.57;;;8.20;96.80;;;;;;5091313;28;20208;-61
2021/04/25 05:41:06;;;;;;;10.73;6.40;;;8.50;96.40;;;;;;5091342;28;20208;-60
2021/04/25 05:43:33;;;;;;;8.77;5.47;;;9.70;95.50;;;;;;5091226;28;20263;-61
2021/04/25 05:45:59;;;;;;;11.03;5.60;;;11.50;91.70;;;;;;5091284;28;20205;-61
2021/04/25 05:48:25;;;;;;;11.90;6.13;;;13.40;86.10;;;;;;5091994;28;20204;-62
2021/04/25 05:50:51;;;;;;;8.57;6.00;;;15.30;78.80;;;;;;5095096;28;20220;-62
2021/04/25 05:53:17;;;;;;;8.20;5.73;;;16.90;70.80;;;;;;5095488;28;20695;-61
2021/04/25 05:55:44;;;;;;;11.80;7.17;;;18.50;65.70;;;;;;5094770;28;20248;-61
2021/04/25 05:58:11;;;;;;;8.13;5.90;;;20.00;60.10;;;;;;5094876;28;20675;-63
2021/04/25 06:00:39;;;;;;;8.32;5.70;;;21.30;56.60;;;;;;5095040;28;20204;-63
2021/04/25 06:03:05;;;;;;;8.65;5.70;;;22.40;53.70;;;;;;5095161;28;20210;-63
2021/04/25 06:05:31;;;;;;;14.18;9.80;;;23.30;51.60;;;;;;5094885;28;20299;-63
2021/04/25 06:07:57;;;;;;;12.30;7.65;;;23.90;49.20;;;;;;5094871;28;20281;-62
2021/04/25 06:10:26;;;;;;;6.97;5.53;;;24.60;47.60;;;;;;5094686;28;20230;-63
2021/04/25 06:12:53;;;;;;;9.35;6.53;;;25.00;45.60;;;;;;5095081;28;20276;-62
2021/04/25 06:15:22;;;;;;;8.00;5.60;;;25.10;45.80;;;;;;5094670;28;20297;-65
2021/04/25 06:17:48;;;;;;;10.32;6.95;;;25.50;45.10;;;;;;5094626;28;20663;-63
2021/04/25 06:20:15;;;;;;;9.93;7.05;;;26.00;44.10;;;;;;5094742;28;20204;-63
2021/04/25 06:22:42;;;;;;;11.90;7.28;;;26.30;42.60;;;;;;5094645;28;20207;-63
2021/04/25 06:25:10;;;;;;;13.60;7.32;;;26.60;42.30;;;;;;5094357;28;20731;-63
2021/04/25 06:27:37;;;;;;;10.32;7.18;;;26.90;41.30;;;;;;5094728;28;20261;-63
2021/04/25 06:30:05;;;;;;;12.18;6.95;;;27.00;40.70;;;;;;5094694;28;20215;-63
2021/04/25 06:32:31;;;;;;;9.80;6.97;;;26.80;40.50;;;;;;5094425;28;20228;-63
2021/04/25 06:34:58;;;;;;;11.93;6.90;;;26.60;40.80;;;;;;5094470;28;20240;-62
2021/04/25 06:37:24;;;;;;;10.32;6.97;;;26.50;40.50;;;;;;5094618;28;20200;-62
2021/04/25 06:39:50;;;;;;;9.38;6.47;;;26.40;40.90;;;;;;5094615;28;20676;-63
2021/04/25 06:42:16;;;;;;;10.95;7.15;;;26.50;40.40;;;;;;5094654;28;20200;-63
2021/04/25 06:44:43;;;;;;;10.32;6.97;;;26.60;40.40;;;;;;5094310;28;20718;-63
2021/04/25 06:47:10;;;;;;;8.32;6.63;;;27.10;40.00;;;;;;5094319;28;20207;-63
2021/04/25 06:49:36;;;;;;;11.27;7.53;;;27.70;38.80;;;;;;5094301;28;20204;-64
2021/04/25 06:52:02;;;;;;;11.57;7.30;;;28.10;38.40;;;;;;5093930;28;20256;-64
2021/04/25 06:54:29;;;;;;;10.18;6.97;;;28.60;37.70;;;;;;5093951;28;20221;-64
2021/04/25 06:56:55;;;;;;;10.02;7.22;;;28.80;36.80;;;;;;5094259;28;20208;-63
2021/04/25 06:59:21;;;;;;;10.48;7.53;;;29.00;37.00;;;;;;5093547;28;20204;-63
2021/04/25 07:01:47;;;;;;;11.05;7.20;;;29.20;36.30;;;;;;5093169;28;20258;-64
2021/04/25 07:04:14;;;;;;;10.10;7.32;;;29.20;36.10;;;;;;5093680;28;20730;-65
2021/04/25 07:06:41;;;;;;;11.35;7.30;;;28.70;36.30;;;;;;5093548;28;20204;-64
2021/04/25 07:09:08;;;;;;;12.52;7.40;;;28.60;36.50;;;;;;5094013;28;20219;-64
2021/04/25 07:11:34;;;;;;;10.30;7.18;;;29.00;36.10;;;;;;5093864;28;20224;-63
2021/04/25 07:14:01;;;;;;;11.55;7.50;;;29.40;36.00;;;;;;5093716;28;20238;-63
2021/04/25 07:16:27;;;;;;;8.40;7.05;;;29.90;35.20;;;;;;5093892;28;20204;-64
2021/04/25 07:18:53;;;;;;;10.82;7.13;;;30.10;34.50;;;;;;5093748;28;20253;-64
2021/04/25 07:21:20;;;;;;;8.93;7.25;;;30.00;34.80;;;;;;5093781;28;20212;-64
2021/04/25 07:23:46;;;;;;;10.48;7.25;;;30.10;35.00;;;;;;5093793;28;20220;-63
2021/04/25 07:26:13;;;;;;;9.05;7.07;;;30.60;34.00;;;;;;5093981;28;20208;-64
2021/04/25 07:28:39;;;;;;;16.50;10.57;;;30.60;33.80;;;;;;5093694;28;20204;-64
2021/04/25 07:31:06;;;;;;;13.85;7.68;;;30.50;34.10;;;;;;5093385;28;20349;-64
2021/04/25 07:33:32;;;;;;;10.50;7.90;;;30.40;34.10;;;;;;5094042;28;20656;-64
2021/04/25 07:35:59;;;;;;;10.80;7.03;;;30.30;34.10;;;;;;5093754;28;20204;-63
2021/04/25 07:38:26;;;;;;;11.27;7.55;;;30.20;34.00;;;;;;5083412;28;20665;-63
2021/04/25 07:40:54;;;;;;;9.38;7.22;;;30.20;34.00;;;;;;5073078;28;20201;-63
2021/04/25 07:43:21;;;;;;;8.15;6.95;;;30.70;33.80;;;;;;5072849;28;20216;-63
2021/04/25 07:45:47;;;;;;;10.43;7.60;;;31.50;33.10;;;;;;5072453;28;20463;-63
2021/04/25 07:48:13;;;;;;;9.23;7.57;;;32.10;31.90;;;;;;5072604;28;20205;-63
2021/04/25 07:50:39;;;;;;;12.38;7.72;;;32.50;31.60;;;;;;5072166;28;20699;-63
2021/04/25 07:53:06;;;;;;;12.30;7.65;;;31.90;31.70;;;;;;5072755;28;20212;-63
2021/04/25 07:55:33;;;;;;;9.38;7.38;;;31.20;32.40;;;;;;5072564;28;20221;-63
2021/04/25 07:57:59;;;;;;;10.90;7.63;;;30.90;32.80;;;;;;5072697;28;20209;-63
2021/04/25 08:00:25;;;;;;;10.20;7.70;;;30.50;33.10;;;;;;5072886;28;20259;-61
2021/04/25 08:02:51;;;;;;;12.15;8.05;;;29.80;34.20;;;;;;5073040;28;20668;-65
2021/04/25 08:05:18;;;;;;;10.75;7.47;;;29.80;34.40;;;;;;5073134;28;20229;-64
2021/04/25 08:07:45;;;;;;;9.43;7.35;;;30.60;33.40;;;;;;5072699;28;20665;-65
2021/04/25 08:10:12;;;;;;;13.32;7.75;;;30.90;32.90;;;;;;5071971;28;20710;-62
2021/04/25 08:12:39;;;;;;;11.68;7.72;;;30.70;32.80;;;;;;5071494;28;20229;-67
2021/04/25 08:15:07;;;;;;;10.68;8.07;;;30.10;33.40;;;;;;5071559;28;20283;-67
2021/04/25 08:17:33;;;;;;;11.48;8.00;;;28.50;35.20;;;;;;5071834;28;20205;-66
2021/04/25 08:19:59;;;;;;;11.20;8.18;;;27.80;35.90;;;;;;5072912;28;20201;-64
2021/04/25 08:22:25;;;;;;;10.15;7.60;;;27.50;36.40;;;;;;5070028;28;20200;-67
2021/04/25 08:24:52;;;;;;;11.68;8.30;;;27.10;36.60;;;;;;5071648;28;20232;-65
2021/04/25 08:27:18;;;;;;;11.43;7.70;;;25.80;38.30;;;;;;5071725;28;20211;-64
2021/04/25 08:29:45;;;;;;;9.85;8.10;;;23.80;40.20;;;;;;5071612;28;20664;-64
2021/04/25 08:32:11;;;;;;;14.38;8.10;;;21.50;43.00;;;;;;5071739;28;20232;-64
2021/04/25 08:34:37;;;;;;;9.75;7.45;;;20.10;45.10;;;;;;5071866;28;20232;-65
2021/04/25 08:37:04;;;;;;;12.18;7.88;;;18.80;46.90;;;;;;5071714;28;20661;-64
2021/04/25 08:39:30;;;;;;;10.67;7.27;;;17.60;48.90;;;;;;5071901;28;20216;-64
2021/04/25 08:41:56;;;;;;;10.67;7.57;;;16.90;50.30;;;;;;5071283;28;20201;-62
2021/04/25 08:44:23;;;;;;;12.10;8.00;;;16.50;51.30;;;;;;5071228;28;20608;-58
2021/04/25 08:46:52;;;;;;;14.77;9.63;;;15.90;52.70;;;;;;5071807;28;20240;-59
2021/04/25 08:49:23;;;;;;;10.43;7.00;;;15.60;53.40;;;;;;5072052;28;20212;-59
2021/04/25 08:51:50;;;;;;;9.17;7.07;;;15.40;54.00;;;;;;5071546;28;20696;-59
2021/04/25 08:54:17;;;;;;;12.87;7.23;;;15.10;54.60;;;;;;5071505;28;20221;-59
2021/04/25 08:56:43;;;;;;;9.37;7.60;;;14.80;55.70;;;;;;5072371;28;20201;-60
2021/04/25 08:59:09;;;;;;;10.50;7.63;;;14.70;56.10;;;;;;5072647;28;20274;-59
2021/04/25 09:01:36;;;;;;;9.80;7.03;;;14.50;57.20;;;;;;5073037;28;20212;-60
2021/04/25 09:04:04;;;;;;;11.30;7.33;;;14.40;57.50;;;;;;5073309;28;20225;-60
2021/04/25 09:06:30;;;;;;;12.27;7.13;;;14.40;57.10;;;;;;5072209;28;20205;-60
2021/04/25 09:09:01;;;;;;;10.37;7.03;;;14.40;57.00;;;;;;5071694;28;20600;-60
2021/04/25 09:11:29;;;;;;;9.63;6.60;;;14.60;57.20;;;;;;5071436;28;20672;-61
2021/04/25 09:14:14;;;;;;;9.93;6.70;;;14.60;56.90;;;;;;5071566;28;20237;-60
2021/04/25 09:16:41;;;;;;;10.37;6.43;;;14.70;56.40;;;;;;5071588;28;20334;-60
2021/04/25 09:19:08;;;;;;;9.97;6.20;;;14.60;56.20;;;;;;5071831;28;20500;-59
2021/04/25 09:21:34;;;;;;;9.13;6.37;;;14.50;56.90;;;;;;5071620;28;20209;-59
2021/04/25 09:24:22;;;;;;;10.40;6.30;;;14.40;56.90;;;;;;5071069;28;20746;-60
2021/04/25 09:26:50;;;;;;;13.47;6.43;;;14.60;55.90;;;;;;5072205;28;20211;-61
2021/04/25 09:29:16;;;;;;;10.13;6.27;;;14.70;55.60;;;;;;5071582;28;20204;-59
2021/04/25 09:31:43;;;;;;;10.17;5.97;;;14.90;55.90;;;;;;5071563;28;20224;-60
2021/04/25 09:34:10;;;;;;;7.00;5.37;;;14.90;55.30;;;;;;5071052;28;20232;-61
2021/04/25 09:36:38;;;;;;;7.77;5.53;;;14.90;55.30;;;;;;5071356;28;20707;-62
2021/04/25 09:39:13;;;;;;;9.47;5.60;;;14.90;54.20;;;;;;5072138;28;20473;-61
2021/04/25 09:41:40;;;;;;;7.93;5.00;;;14.70;55.10;;;;;;5071527;28;20257;-61
2021/04/25 09:44:07;;;;;;;9.20;5.30;;;14.60;55.00;;;;;;5071231;28;20235;-61
2021/04/25 09:46:53;;;;;;;7.80;5.27;;;14.80;55.30;;;;;;5071563;28;20228;-61
2021/04/25 09:49:40;;;;;;;6.90;5.10;;;14.80;54.90;;;;;;5071476;28;20293;-61
2021/04/25 09:52:07;;;;;;;10.13;5.40;;;14.80;54.70;;;;;;5071328;28;20640;-61
2021/04/25 09:54:33;;;;;;;8.13;5.13;;;14.90;55.70;;;;;;5070720;28;20750;-61
2021/04/25 09:57:00;;;;;;;8.73;5.00;;;15.00;54.80;;;;;;5071116;28;20209;-61
2021/04/25 09:59:26;;;;;;;8.87;4.93;;;15.00;54.80;;;;;;5070694;28;20205;-61
2021/04/25 10:02:03;;;;;;;10.40;5.93;;;15.10;55.30;;;;;;5071041;28;20205;-61
2021/04/25 10:04:32;;;;;;;9.43;5.13;;;15.30;54.60;;;;;;5070865;28;20232;-60
2021/04/25 10:07:00;;;;;;;10.10;5.20;;;15.40;54.10;;;;;;5070910;28;20270;-60
2021/04/25 10:09:28;;;;;;;7.80;5.40;;;15.60;54.20;;;;;;5070603;28;20239;-61
2021/04/25 10:11:56;;;;;;;7.93;5.40;;;15.60;53.50;;;;;;5070727;28;20234;-60
2021/04/25 10:14:24;;;;;;;7.70;4.73;;;15.70;53.30;;;;;;5070650;28;20237;-61
2021/04/25 10:16:51;;;;;;;8.00;5.10;;;15.70;52.60;;;;;;5071119;28;20205;-61
2021/04/25 10:19:17;;;;;;;6.33;4.53;;;15.70;52.90;;;;;;5070566;28;20219;-60
2021/04/25 10:21:45;;;;;;;6.83;4.53;;;15.80;52.30;;;;;;5071170;28;20593;-63
2021/04/25 10:24:16;;;;;;;6.70;4.47;;;15.90;52.40;;;;;;5070984;28;20220;-60
2021/04/25 10:26:52;;;;;;;8.00;4.57;;;16.00;52.00;;;;;;5071129;28;20215;-64
2021/04/25 10:29:25;;;;;;;5.87;4.50;;;15.90;51.60;;;;;;5071089;28;20213;-61
2021/04/25 10:31:56;;;;;;;7.00;4.50;;;15.90;51.40;;;;;;5070841;28;20216;-60
2021/04/25 10:34:23;;;;;;;6.60;4.27;;;15.90;50.50;;;;;;5071457;28;20225;-61
2021/04/25 10:37:04;;;;;;;7.07;4.17;;;16.00;50.50;;;;;;5074387;28;20201;-61
2021/04/25 10:39:40;;;;;;;7.70;4.60;;;16.30;51.00;;;;;;5074487;28;20724;-63
2021/04/25 10:42:35;;;;;;;9.60;4.83;;;16.50;51.30;;;;;;5074597;28;20287;-62
2021/04/25 10:45:18;;;;;;;6.63;4.30;;;16.70;50.10;;;;;;5074254;28;20649;-67
2021/04/25 10:47:47;;;;;;;7.50;4.03;;;16.60;49.30;;;;;;5073978;28;20661;-65
2021/04/25 10:50:38;;;;;;;5.10;4.20;;;16.60;49.30;;;;;;5074151;28;20216;-64
2021/04/25 10:53:18;;;;;;;8.30;4.37;;;16.80;48.90;;;;;;5074027;28;20232;-63
2021/04/25 10:55:46;;;;;;;6.37;4.40;;;16.90;48.60;;;;;;5073856;28;20865;-63
2021/04/25 10:58:18;;;;;;;6.77;3.97;;;17.00;48.60;;;;;;5073442;28;20665;-64
2021/04/25 11:00:45;;;;;;;7.10;4.07;;;17.00;48.40;;;;;;5073850;28;20201;-61
2021/04/25 11:03:14;;;;;;;6.20;4.20;;;17.00;47.60;;;;;;5073880;28;20373;-62
2021/04/25 11:05:45;;;;;;;7.73;3.80;;;17.00;47.30;;;;;;5073452;28;20599;-62
2021/04/25 11:08:35;;;;;;;7.70;4.33;;;17.10;46.50;;;;;;5073429;28;20277;-61
2021/04/25 11:11:07;;;;;;;6.33;4.20;;;17.20;46.00;;;;;;5073640;28;20258;-62
2021/04/25 11:13:43;;;;;;;8.07;3.70;;;17.20;46.60;;;;;;5073085;28;20282;-62
2021/04/25 11:16:25;;;;;;;4.93;3.50;;;17.20;46.10;;;;;;5073439;28;20246;-62
2021/04/25 11:18:53;;;;;;;5.53;4.10;;;17.30;46.10;;;;;;5073076;28;20215;-62
2021/04/25 11:21:48;;;;;;;9.10;5.60;;;17.40;45.70;;;;;;5073435;28;20212;-63
2021/04/25 11:24:29;;;;;;;6.30;3.63;;;17.40;46.80;;;;;;5073492;28;20784;-62
2021/04/25 11:26:59;;;;;;;5.47;3.80;;;17.50;46.40;;;;;;5073523;28;20231;-63
2021/04/25 11:30:03;;;;;;;6.13;4.07;;;17.40;45.30;;;;;;5073131;28;20668;-62
2021/04/25 11:32:47;;;;;;;6.47;3.60;;;17.20;45.40;;;;;;5073225;28;20232;-65
2021/04/25 11:35:22;;;;;;;6.07;3.17;;;17.00;45.40;;;;;;5073451;28;20278;-64
2021/04/25 11:37:48;;;;;;;4.90;3.30;;;17.20;45.30;;;;;;5073665;28;20251;-63
2021/04/25 11:40:22;;;;;;;5.50;3.40;;;17.50;45.20;;;;;;5073202;28;20205;-63
2021/04/25 11:42:50;;;;;;;5.57;3.10;;;17.70;45.00;;;;;;5073512;28;20204;-62
2021/04/25 11:45:26;;;;;;;5.57;3.20;;;17.80;43.80;;;;;;5072824;28;20708;-62
2021/04/25 11:47:54;;;;;;;6.43;2.93;;;17.80;43.70;;;;;;5072170;28;20664;-63
2021/04/25 11:50:27;;;;;;;4.20;2.73;;;17.80;43.80;;;;;;5072953;28;20554;-63
2021/04/25 11:52:53;;;;;;;4.57;3.20;;;17.80;44.60;;;;;;5072941;28;20224;-62
2021/04/25 11:55:20;;;;;;;6.33;3.27;;;17.90;43.70;;;;;;5072388;28;20730;-64
2021/04/25 11:57:49;;;;;;;4.80;2.83;;;17.90;42.40;;;;;;5072623;28;20205;-63
2021/04/25 12:00:18;;;;;;;9.13;2.97;;;17.90;42.50;;;;;;5072866;28;20307;-63
2021/04/25 12:02:50;;;;;;;4.67;2.90;;;17.80;42.90;;;;;;5072580;28;20577;-64
2021/04/25 12:05:20;;;;;;;6.07;3.42;;;17.70;42.90;;;;;;5068293;28;20530;-64
2021/04/25 12:07:49;;;;;;;6.30;3.40;;;17.80;42.50;;;;;;5072724;28;20566;-62
2021/04/25 12:10:22;;;;;;;5.23;2.70;;;17.90;41.60;;;;;;5072465;28;20558;-63
2021/04/25 12:13:16;;;;;;;6.60;2.70;;;18.00;40.70;;;;;;5072424;28;20220;-63
2021/04/25 12:15:47;;;;;;;4.63;2.50;;;18.10;40.80;;;;;;5072058;28;20240;-63
2021/04/25 12:18:15;;;;;;;3.97;2.53;;;18.20;40.10;;;;;;5072083;28;20209;-62
2021/04/25 12:20:43;;;;;;;4.40;2.30;;;17.90;39.90;;;;;;5072247;28;20232;-63
2021/04/25 12:23:14;;;;;;;3.00;2.63;;;17.80;40.50;;;;;;5073342;28;20215;-63
2021/04/25 12:25:41;;;;;;;4.80;2.40;;;17.90;39.30;;;;;;5072547;28;20293;-64
2021/04/25 12:28:07;;;;;;;4.47;2.33;;;18.00;38.70;;;;;;5072305;28;20713;-64
2021/04/25 12:30:34;;;;;;;5.47;2.63;;;18.00;38.10;;;;;;5072226;28;20208;-63
2021/04/25 12:33:07;;;;;;;3.17;2.80;;;18.20;38.70;;;;;;5072081;28;20225;-63
2021/04/25 12:35:35;;;;;;;5.87;2.60;;;18.20;38.90;;;;;;5072221;28;20232;-64
2021/04/25 12:38:19;;;;;;;3.73;2.30;;;18.30;39.00;;;;;;5071672;28;20209;-62
2021/04/25 12:40:54;;;;;;;5.30;2.43;;;18.40;37.40;;;;;;5071922;28;20208;-62
2021/04/25 12:43:20;;;;;;;4.13;2.43;;;18.70;37.70;;;;;;5071521;28;20690;-64
2021/04/25 12:45:47;;;;;;;4.00;2.37;;;18.90;38.00;;;;;;5071756;28;20225;-63
2021/04/25 12:48:32;;;;;;;3.60;2.37;;;19.00;38.80;;;;;;5071507;28;20209;-63
2021/04/25 12:51:21;;;;;;;3.67;2.60;;;19.00;38.20;;;;;;5072201;28;20586;-65
2021/04/25 12:54:07;;;;;;;3.67;2.30;;;19.00;38.40;;;;;;5071874;28;20708;-62